N682B SAZN-SABE
Flight info
| Callsign | N682B |
|---|---|
| Flight time | 1h 13m |
| Altitude | 35000 |
| Route | NIDBA2C NIDBA DCT ISMIL UT655 ASADA ASADA8Q |
| Aircraft | C700/M-SBDGHM1RWXY/LB2 |
Departure
| Time | 2026-04-24 18:55 |
|---|---|
| Airport | Presidente Perón International Airport (SAZN) |
Arrival
| Time | 2026-04-24 20:09 |
|---|---|
| Airport | Aeroparque Jorge Newbery (SABE) |
| Time | Latitude | Longitude | Altitude | Speed | Heading |
|---|---|---|---|---|---|
| 2026-04-24 18:54 | -38.94903 | -68.14262 | 887 ft | 0 kts | 269° |
| 2026-04-24 18:55 | -38.94899 | -68.16005 | 1050 ft | 167 kts | 268° |
| 2026-04-24 18:55 | -38.94910 | -68.17493 | 2312 ft | 176 kts | 266° |
| 2026-04-24 18:55 | -38.94919 | -68.19263 | 3151 ft | 215 kts | 270° |
| 2026-04-24 18:56 | -38.94873 | -68.21072 | 4019 ft | 200 kts | 269° |
| 2026-04-24 18:56 | -38.94869 | -68.22894 | 4942 ft | 212 kts | 269° |
| 2026-04-24 18:56 | -38.94870 | -68.24765 | 5855 ft | 213 kts | 269° |
| 2026-04-24 18:56 | -38.94863 | -68.26699 | 6798 ft | 216 kts | 269° |
| 2026-04-24 18:57 | -38.94718 | -68.28680 | 7697 ft | 237 kts | 287° |
| 2026-04-24 18:57 | -38.93651 | -68.30365 | 8607 ft | 263 kts | 323° |
| 2026-04-24 18:57 | -38.91824 | -68.30988 | 9583 ft | 285 kts | 357° |
| 2026-04-24 18:57 | -38.89884 | -68.30185 | 10502 ft | 307 kts | 29° |
| 2026-04-24 18:58 | -38.88404 | -68.28068 | 11444 ft | 332 kts | 60° |
| 2026-04-24 18:58 | -38.87737 | -68.25179 | 12435 ft | 345 kts | 80° |
| 2026-04-24 18:58 | -38.87409 | -68.22088 | 13479 ft | 352 kts | 82° |
| 2026-04-24 18:58 | -38.86977 | -68.18958 | 14460 ft | 358 kts | 76° |
| 2026-04-24 18:59 | -38.86226 | -68.15926 | 15419 ft | 363 kts | 69° |
| 2026-04-24 18:59 | -38.85311 | -68.12867 | 16405 ft | 370 kts | 68° |
| 2026-04-24 18:59 | -38.84473 | -68.09709 | 17431 ft | 376 kts | 72° |
| 2026-04-24 18:59 | -38.83741 | -68.06502 | 18463 ft | 382 kts | 73° |
| 2026-04-24 19:00 | -38.82945 | -68.03209 | 19399 ft | 387 kts | 71° |
| 2026-04-24 19:00 | -38.82083 | -67.99909 | 20361 ft | 392 kts | 70° |
| 2026-04-24 19:00 | -38.81223 | -67.96551 | 21355 ft | 397 kts | 71° |
| 2026-04-24 19:00 | -38.80395 | -67.93197 | 22372 ft | 401 kts | 71° |
| 2026-04-24 19:01 | -38.79541 | -67.89775 | 23415 ft | 404 kts | 71° |
| 2026-04-24 19:01 | -38.78661 | -67.86323 | 24287 ft | 408 kts | 70° |
| 2026-04-24 19:01 | -38.77779 | -67.82845 | 25135 ft | 411 kts | 70° |
| 2026-04-24 19:01 | -38.76898 | -67.79349 | 25999 ft | 413 kts | 70° |
| 2026-04-24 19:02 | -38.76310 | -67.77025 | 26584 ft | 414 kts | 70° |
| 2026-04-24 19:02 | -38.75112 | -67.72304 | 27777 ft | 416 kts | 70° |
| 2026-04-24 19:02 | -38.74216 | -67.68786 | 28679 ft | 417 kts | 70° |
| 2026-04-24 19:02 | -38.73317 | -67.65249 | 29591 ft | 418 kts | 69° |
| 2026-04-24 19:03 | -38.72410 | -67.61692 | 30450 ft | 418 kts | 69° |
| 2026-04-24 19:03 | -38.71505 | -67.58200 | 31203 ft | 417 kts | 67° |
| 2026-04-24 19:03 | -38.70255 | -67.54878 | 31947 ft | 413 kts | 57° |
| 2026-04-24 19:03 | -38.68904 | -67.51634 | 32708 ft | 412 kts | 59° |
| 2026-04-24 19:04 | -38.67604 | -67.48364 | 33464 ft | 411 kts | 59° |
| 2026-04-24 19:04 | -38.66306 | -67.45154 | 34192 ft | 409 kts | 58° |
| 2026-04-24 19:04 | -38.64974 | -67.41941 | 34796 ft | 408 kts | 58° |
| 2026-04-24 19:04 | -38.63639 | -67.38707 | 35057 ft | 419 kts | 58° |
| 2026-04-24 19:05 | -38.62260 | -67.35338 | 35063 ft | 436 kts | 58° |
| 2026-04-24 19:05 | -38.60826 | -67.31825 | 35071 ft | 453 kts | 58° |
| 2026-04-24 19:05 | -38.59330 | -67.28186 | 35080 ft | 469 kts | 58° |
| 2026-04-24 19:05 | -38.57779 | -67.24425 | 35085 ft | 484 kts | 58° |
| 2026-04-24 19:06 | -38.56189 | -67.20563 | 35080 ft | 499 kts | 58° |
| 2026-04-24 19:06 | -38.54566 | -67.16622 | 35078 ft | 513 kts | 59° |
| 2026-04-24 19:06 | -38.52874 | -67.12522 | 35076 ft | 525 kts | 58° |
| 2026-04-24 19:07 | -38.49432 | -67.04198 | 35073 ft | 531 kts | 58° |
| 2026-04-24 19:07 | -38.46549 | -66.97247 | 35075 ft | 532 kts | 58° |
| 2026-04-24 19:08 | -38.42517 | -66.87552 | 35067 ft | 531 kts | 58° |
| 2026-04-24 19:08 | -38.39038 | -66.79210 | 35067 ft | 532 kts | 58° |
| 2026-04-24 19:09 | -38.35551 | -66.70871 | 35067 ft | 533 kts | 58° |
| 2026-04-24 19:09 | -38.32077 | -66.62588 | 35064 ft | 533 kts | 58° |
| 2026-04-24 19:10 | -38.28571 | -66.54262 | 35059 ft | 534 kts | 58° |
| 2026-04-24 19:10 | -38.25133 | -66.45899 | 35053 ft | 536 kts | 62° |
| 2026-04-24 19:11 | -38.22482 | -66.36977 | 35045 ft | 538 kts | 67° |
| 2026-04-24 19:11 | -38.19486 | -66.28288 | 35040 ft | 533 kts | 57° |
| 2026-04-24 19:12 | -38.15680 | -66.20292 | 35040 ft | 531 kts | 54° |
| 2026-04-24 19:12 | -38.12165 | -66.11958 | 35035 ft | 534 kts | 59° |
| 2026-04-24 19:13 | -38.09202 | -66.05100 | 35043 ft | 532 kts | 55° |
| 2026-04-24 19:13 | -38.04995 | -65.95524 | 35038 ft | 533 kts | 58° |
| 2026-04-24 19:14 | -38.01410 | -65.87271 | 35043 ft | 532 kts | 56° |
| 2026-04-24 19:14 | -37.97803 | -65.79065 | 35039 ft | 533 kts | 57° |
| 2026-04-24 19:15 | -37.94214 | -65.70839 | 35037 ft | 533 kts | 56° |
| 2026-04-24 19:15 | -37.90614 | -65.62679 | 35039 ft | 533 kts | 57° |
| 2026-04-24 19:16 | -37.85205 | -65.50408 | 35036 ft | 533 kts | 57° |
| 2026-04-24 19:16 | -37.81584 | -65.42210 | 35038 ft | 533 kts | 57° |
| 2026-04-24 19:17 | -37.77947 | -65.34015 | 35037 ft | 532 kts | 56° |
| 2026-04-24 19:17 | -37.74347 | -65.25914 | 35034 ft | 532 kts | 56° |
| 2026-04-24 19:18 | -37.70711 | -65.17759 | 35039 ft | 532 kts | 56° |
| 2026-04-24 19:18 | -37.67072 | -65.09614 | 35038 ft | 531 kts | 56° |
| 2026-04-24 19:19 | -37.63445 | -65.01519 | 35037 ft | 532 kts | 56° |
| 2026-04-24 19:19 | -37.59798 | -64.93396 | 35039 ft | 531 kts | 56° |
| 2026-04-24 19:20 | -37.56146 | -64.85288 | 35038 ft | 531 kts | 56° |
| 2026-04-24 19:20 | -37.52488 | -64.77182 | 35040 ft | 531 kts | 56° |
| 2026-04-24 19:21 | -37.48848 | -64.69137 | 35033 ft | 531 kts | 56° |
| 2026-04-24 19:21 | -37.45178 | -64.61048 | 35035 ft | 531 kts | 56° |
| 2026-04-24 19:22 | -37.41506 | -64.52970 | 35034 ft | 531 kts | 56° |
| 2026-04-24 19:22 | -37.37837 | -64.44923 | 35030 ft | 532 kts | 56° |
| 2026-04-24 19:23 | -37.34143 | -64.36839 | 35032 ft | 532 kts | 56° |
| 2026-04-24 19:23 | -37.30466 | -64.28812 | 35032 ft | 532 kts | 56° |
| 2026-04-24 19:24 | -37.26788 | -64.20804 | 35031 ft | 532 kts | 56° |
| 2026-04-24 19:24 | -37.23063 | -64.12712 | 35027 ft | 531 kts | 56° |
| 2026-04-24 19:25 | -37.19376 | -64.04722 | 35028 ft | 532 kts | 56° |
| 2026-04-24 19:25 | -37.15668 | -63.96707 | 35030 ft | 532 kts | 56° |
| 2026-04-24 19:26 | -37.11945 | -63.88679 | 35027 ft | 532 kts | 56° |
| 2026-04-24 19:26 | -37.08220 | -63.80665 | 35029 ft | 532 kts | 56° |
| 2026-04-24 19:27 | -37.04510 | -63.72705 | 35026 ft | 532 kts | 55° |
| 2026-04-24 19:27 | -37.00768 | -63.64695 | 35022 ft | 532 kts | 55° |
| 2026-04-24 19:28 | -36.97046 | -63.56744 | 35024 ft | 532 kts | 55° |
| 2026-04-24 19:28 | -36.93289 | -63.48743 | 35014 ft | 532 kts | 55° |
| 2026-04-24 19:29 | -36.87651 | -63.36767 | 35015 ft | 532 kts | 55° |
| 2026-04-24 19:30 | -36.83886 | -63.28794 | 35018 ft | 532 kts | 55° |
| 2026-04-24 19:30 | -36.80118 | -63.20833 | 35023 ft | 533 kts | 55° |
| 2026-04-24 19:31 | -36.76357 | -63.12907 | 35014 ft | 533 kts | 55° |
| 2026-04-24 19:31 | -36.72567 | -63.04939 | 35012 ft | 533 kts | 55° |
| 2026-04-24 19:32 | -36.68778 | -62.96991 | 35012 ft | 533 kts | 55° |
| 2026-04-24 19:32 | -36.64992 | -62.89068 | 35014 ft | 533 kts | 55° |
| 2026-04-24 19:33 | -36.61205 | -62.81162 | 35014 ft | 533 kts | 55° |
| 2026-04-24 19:33 | -36.57391 | -62.73218 | 35013 ft | 534 kts | 55° |
| 2026-04-24 19:34 | -36.54214 | -62.66618 | 35015 ft | 534 kts | 55° |
| 2026-04-24 19:34 | -36.49766 | -62.57393 | 35018 ft | 533 kts | 55° |
| 2026-04-24 19:35 | -36.45937 | -62.49477 | 35010 ft | 534 kts | 55° |
| 2026-04-24 19:35 | -36.42751 | -62.42901 | 35013 ft | 534 kts | 55° |
| 2026-04-24 19:36 | -36.38919 | -62.35011 | 35013 ft | 534 kts | 55° |
| 2026-04-24 19:36 | -36.35075 | -62.27115 | 35009 ft | 533 kts | 55° |
| 2026-04-24 19:37 | -36.31252 | -62.19280 | 35009 ft | 533 kts | 55° |
| 2026-04-24 19:37 | -36.27401 | -62.11404 | 35011 ft | 533 kts | 55° |
| 2026-04-24 19:38 | -36.23563 | -62.03575 | 35016 ft | 533 kts | 54° |
| 2026-04-24 19:38 | -36.19700 | -61.95712 | 35011 ft | 533 kts | 54° |
| 2026-04-24 19:39 | -36.15834 | -61.87862 | 35006 ft | 533 kts | 54° |
| 2026-04-24 19:39 | -36.11962 | -61.80018 | 35017 ft | 534 kts | 54° |
| 2026-04-24 19:40 | -36.08120 | -61.72217 | 35022 ft | 534 kts | 55° |
| 2026-04-24 19:40 | -36.04260 | -61.64373 | 35020 ft | 534 kts | 54° |
| 2026-04-24 19:41 | -36.00384 | -61.56535 | 35020 ft | 534 kts | 54° |
| 2026-04-24 19:41 | -35.96536 | -61.48758 | 35016 ft | 533 kts | 54° |
| 2026-04-24 19:42 | -35.92653 | -61.40937 | 35011 ft | 533 kts | 54° |
| 2026-04-24 19:42 | -35.88789 | -61.33165 | 35011 ft | 533 kts | 54° |
| 2026-04-24 19:43 | -35.84920 | -61.25350 | 35012 ft | 533 kts | 55° |
| 2026-04-24 19:43 | -35.81064 | -61.17534 | 35015 ft | 533 kts | 54° |
| 2026-04-24 19:44 | -35.77179 | -61.09713 | 34529 ft | 532 kts | 55° |
| 2026-04-24 19:44 | -35.75286 | -61.05886 | 34091 ft | 526 kts | 55° |
| 2026-04-24 19:44 | -35.73383 | -61.02056 | 33581 ft | 523 kts | 55° |
| 2026-04-24 19:44 | -35.71476 | -60.98238 | 33069 ft | 524 kts | 55° |
| 2026-04-24 19:45 | -35.69564 | -60.94402 | 32631 ft | 523 kts | 55° |
| 2026-04-24 19:45 | -35.67650 | -60.90558 | 32366 ft | 526 kts | 55° |
| 2026-04-24 19:45 | -35.65752 | -60.86757 | 32113 ft | 528 kts | 55° |
| 2026-04-24 19:45 | -35.63832 | -60.82919 | 31862 ft | 529 kts | 55° |
| 2026-04-24 19:46 | -35.61899 | -60.79058 | 31612 ft | 529 kts | 55° |
| 2026-04-24 19:46 | -35.59962 | -60.75191 | 31356 ft | 529 kts | 55° |
| 2026-04-24 19:46 | -35.58031 | -60.71340 | 31115 ft | 529 kts | 55° |
| 2026-04-24 19:46 | -35.56092 | -60.67479 | 30870 ft | 530 kts | 55° |
| 2026-04-24 19:47 | -35.54174 | -60.63664 | 30634 ft | 529 kts | 55° |
| 2026-04-24 19:47 | -35.52241 | -60.59823 | 30394 ft | 529 kts | 55° |
| 2026-04-24 19:47 | -35.50290 | -60.55952 | 30181 ft | 530 kts | 55° |
| 2026-04-24 19:47 | -35.48364 | -60.52133 | 29947 ft | 531 kts | 55° |
| 2026-04-24 19:48 | -35.46417 | -60.48275 | 29697 ft | 531 kts | 55° |
| 2026-04-24 19:48 | -35.44463 | -60.44411 | 29445 ft | 531 kts | 55° |
| 2026-04-24 19:48 | -35.40564 | -60.36712 | 28960 ft | 532 kts | 55° |
| 2026-04-24 19:49 | -35.36681 | -60.29058 | 28386 ft | 530 kts | 55° |
| 2026-04-24 19:49 | -35.32758 | -60.21347 | 27802 ft | 526 kts | 55° |
| 2026-04-24 19:50 | -35.27004 | -60.10064 | 26947 ft | 518 kts | 55° |
| 2026-04-24 19:50 | -35.25090 | -60.06319 | 26663 ft | 516 kts | 55° |
| 2026-04-24 19:51 | -35.21323 | -59.98961 | 26114 ft | 512 kts | 55° |
| 2026-04-24 19:51 | -35.19429 | -59.95266 | 25857 ft | 509 kts | 55° |
| 2026-04-24 19:52 | -35.15668 | -59.87943 | 25414 ft | 506 kts | 55° |
| 2026-04-24 19:52 | -35.13794 | -59.84301 | 25195 ft | 504 kts | 55° |
| 2026-04-24 19:52 | -35.11951 | -59.80719 | 24980 ft | 503 kts | 55° |
| 2026-04-24 19:52 | -35.10087 | -59.77105 | 24769 ft | 501 kts | 55° |
| 2026-04-24 19:53 | -35.08232 | -59.73509 | 24553 ft | 500 kts | 55° |
| 2026-04-24 19:53 | -35.06376 | -59.69916 | 24344 ft | 498 kts | 55° |
| 2026-04-24 19:53 | -35.02960 | -59.62595 | 23907 ft | 498 kts | 65° |
| 2026-04-24 19:54 | -35.01873 | -59.58616 | 23697 ft | 499 kts | 74° |
| 2026-04-24 19:54 | -35.01138 | -59.54482 | 23450 ft | 498 kts | 77° |
| 2026-04-24 19:54 | -35.00394 | -59.50380 | 22929 ft | 485 kts | 76° |
| 2026-04-24 19:54 | -34.99638 | -59.46317 | 22423 ft | 487 kts | 76° |
| 2026-04-24 19:55 | -34.99162 | -59.43680 | 22087 ft | 479 kts | 76° |
| 2026-04-24 19:55 | -34.98216 | -59.38384 | 21443 ft | 479 kts | 76° |
| 2026-04-24 19:55 | -34.97493 | -59.34434 | 20951 ft | 476 kts | 76° |
| 2026-04-24 19:55 | -34.96768 | -59.30494 | 20428 ft | 472 kts | 76° |
| 2026-04-24 19:56 | -34.96058 | -59.26585 | 19909 ft | 469 kts | 76° |
| 2026-04-24 19:56 | -34.95358 | -59.22754 | 19408 ft | 465 kts | 75° |
| 2026-04-24 19:56 | -34.94653 | -59.18924 | 19021 ft | 459 kts | 75° |
| 2026-04-24 19:56 | -34.93952 | -59.15105 | 18512 ft | 459 kts | 75° |
| 2026-04-24 19:57 | -34.93260 | -59.11352 | 17892 ft | 450 kts | 75° |
| 2026-04-24 19:57 | -34.92560 | -59.07642 | 17229 ft | 447 kts | 73° |
| 2026-04-24 19:57 | -34.91478 | -59.04128 | 16504 ft | 440 kts | 62° |
| 2026-04-24 19:57 | -34.89987 | -59.00960 | 15800 ft | 433 kts | 53° |
| 2026-04-24 19:58 | -34.88349 | -58.97855 | 15098 ft | 429 kts | 58° |
| 2026-04-24 19:58 | -34.86562 | -58.95054 | 14403 ft | 419 kts | 40° |
| 2026-04-24 19:58 | -34.84172 | -58.93268 | 13696 ft | 391 kts | 21° |
| 2026-04-24 19:58 | -34.81679 | -58.92224 | 12955 ft | 370 kts | 14° |
| 2026-04-24 19:59 | -34.79253 | -58.91374 | 12234 ft | 354 kts | 14° |
| 2026-04-24 19:59 | -34.76963 | -58.90416 | 11534 ft | 343 kts | 20° |
| 2026-04-24 19:59 | -34.74848 | -58.89189 | 10984 ft | 331 kts | 25° |
| 2026-04-24 19:59 | -34.72863 | -58.87969 | 10550 ft | 315 kts | 23° |
| 2026-04-24 20:00 | -34.70896 | -58.86922 | 10158 ft | 302 kts | 20° |
| 2026-04-24 20:00 | -34.68988 | -58.85939 | 9750 ft | 292 kts | 21° |
| 2026-04-24 20:00 | -34.67151 | -58.84936 | 9357 ft | 286 kts | 22° |
| 2026-04-24 20:00 | -34.65349 | -58.83943 | 8983 ft | 284 kts | 22° |
| 2026-04-24 20:01 | -34.63561 | -58.82973 | 8611 ft | 283 kts | 21° |
| 2026-04-24 20:01 | -34.61760 | -58.82001 | 8233 ft | 282 kts | 22° |
| 2026-04-24 20:01 | -34.59969 | -58.81032 | 7868 ft | 281 kts | 22° |
| 2026-04-24 20:01 | -34.58191 | -58.80067 | 7514 ft | 279 kts | 22° |
| 2026-04-24 20:02 | -34.57023 | -58.79433 | 7272 ft | 277 kts | 22° |
| 2026-04-24 20:02 | -34.54671 | -58.78161 | 6792 ft | 274 kts | 22° |
| 2026-04-24 20:02 | -34.52963 | -58.77132 | 6380 ft | 275 kts | 33° |
| 2026-04-24 20:02 | -34.51780 | -58.75318 | 5850 ft | 274 kts | 63° |
| 2026-04-24 20:03 | -34.51178 | -58.73179 | 5358 ft | 262 kts | 70° |
| 2026-04-24 20:03 | -34.50579 | -58.71171 | 4914 ft | 250 kts | 64° |
| 2026-04-24 20:03 | -34.49840 | -58.69319 | 4499 ft | 239 kts | 60° |
| 2026-04-24 20:03 | -34.49103 | -58.67553 | 4091 ft | 231 kts | 62° |
| 2026-04-24 20:04 | -34.48422 | -58.65807 | 3692 ft | 226 kts | 63° |
| 2026-04-24 20:04 | -34.47761 | -58.64098 | 3285 ft | 221 kts | 62° |
| 2026-04-24 20:04 | -34.47111 | -58.62450 | 3051 ft | 209 kts | 62° |
| 2026-04-24 20:04 | -34.46655 | -58.60830 | 2965 ft | 206 kts | 78° |
| 2026-04-24 20:05 | -34.46653 | -58.59086 | 2819 ft | 209 kts | 96° |
| 2026-04-24 20:05 | -34.47102 | -58.57409 | 2678 ft | 206 kts | 115° |
| 2026-04-24 20:05 | -34.47881 | -58.55986 | 2560 ft | 208 kts | 122° |
| 2026-04-24 20:05 | -34.48694 | -58.54537 | 2382 ft | 199 kts | 121° |
| 2026-04-24 20:06 | -34.49378 | -58.53295 | 2342 ft | 163 kts | 121° |
| 2026-04-24 20:06 | -34.49990 | -58.52194 | 2304 ft | 152 kts | 121° |
| 2026-04-24 20:06 | -34.50586 | -58.51135 | 2236 ft | 150 kts | 120° |
| 2026-04-24 20:06 | -34.51169 | -58.50086 | 2109 ft | 150 kts | 121° |
| 2026-04-24 20:07 | -34.51558 | -58.49396 | 1958 ft | 148 kts | 121° |
| 2026-04-24 20:07 | -34.52326 | -58.48023 | 1528 ft | 147 kts | 122° |
| 2026-04-24 20:07 | -34.52902 | -58.47023 | 1295 ft | 143 kts | 119° |
| 2026-04-24 20:07 | -34.53462 | -58.46020 | 1011 ft | 143 kts | 118° |
| 2026-04-24 20:08 | -34.54002 | -58.45014 | 736 ft | 142 kts | 120° |
| 2026-04-24 20:08 | -34.54299 | -58.44493 | 574 ft | 137 kts | 122° |
| 2026-04-24 20:08 | -34.54824 | -58.43555 | 294 ft | 132 kts | 121° |
| 2026-04-24 20:08 | -34.55332 | -58.42642 | 75 ft | 123 kts | 121° |
| 2026-04-24 20:09 | -34.55748 | -58.41883 | 22 ft | 87 kts | 123° |
| 2026-04-24 20:09 | -34.55923 | -58.41577 | 19 ft | 21 kts | 123° |
| 2026-04-24 20:09 | -34.55985 | -58.41464 | 21 ft | 16 kts | 123° |
| 2026-04-24 20:09 | -34.56073 | -58.41406 | 21 ft | 17 kts | 212° |
| 2026-04-24 20:10 | -34.56122 | -58.41445 | 21 ft | 10 kts | 213° |
| 2026-04-24 20:10 | -34.56136 | -58.41456 | 21 ft | 11 kts | 213° |
| 2026-04-24 20:10 | -34.56198 | -58.41475 | 23 ft | 1 kts | 147° |
| 2026-04-24 20:10 | -34.56219 | -58.41433 | 22 ft | 6 kts | 121° |
| 2026-04-24 20:11 | -34.56240 | -58.41388 | 24 ft | 1 kts | 82° |
| 2026-04-24 20:11 | -34.56213 | -58.41360 | 22 ft | 8 kts | 33° |
| 2026-04-24 20:11 | -34.56211 | -58.41359 | 22 ft | 0 kts | 33° |